Terminal Aerodrome Forecast
Issued by NWS

Home | Current Version | Previous Version | Text Only | Print | Product List | Glossary On
Versions: 1 2 3 4 5 6 7 8 9 10 11 12 13 14 15 16 17 18
683
FTUS43 KMQT 231720
TAFCMX
TAF
KCMX 231720Z 2318/2418 30010KT P6SM BKN030
     FM232000 30008KT P6SM SCT035 BKN120
     FM240100 36006KT P6SM OVC030
     FM240800 03011G20KT P6SM OVC020
     FM241000 04012G21KT P6SM OVC015
     FM241200 04013G22KT P6SM VCSH OVC015=

USA.gov is the U.S. government's official web portal to all federal, state and local government web resources and services.